CheckWX is a tool to help pilots better visualize weather data.  It is not intended as a substitute for an official pre-flight weather briefing.

20:45:16 UTC

LDRI TAF
Rijeka Airport
Rijeka, Croatia
TAF LDRI 221725Z 2218/2318 06007KT CAVOK TX21/2313Z TN08/2304Z

Mar-22@
18:00 UTC

Mar-22 @ 18:00 UTC

Mar-23@
18:00 UTC

Mar-23 @ 18:00 UTC

TAF LDRI 221725Z 2218/2318 06007KT CAVOK TX21/2313Z TN08/2304Z
Wind
  • 060° at 7 KTS
Cloud Levels
  • No significant clouds